Time;durP1;ratioP1;P1;durP2;ratioP2;P2;SDS_P1;SDS_P2;PMS_P1;PMS_P2;Temp;Humidity;BMP_temperature;BMP_pressure;BME280_temperature;BME280_humidity;BME280_pressure;Samples;Min_cycle;Max_cycle;Signal;HPM_P1;HPM_P2
2022/10/20 00:01:58;;;;;;;9.55;5.25;;;6.80;99.90;;;;;;5017639;28;20024;-77
2022/10/20 00:04:23;;;;;;;10.60;4.72;;;6.70;99.90;;;;;;5021623;28;20485;-77
2022/10/20 00:06:49;;;;;;;12.23;5.47;;;6.60;99.90;;;;;;5028762;28;20025;-77
2022/10/20 00:09:14;;;;;;;9.40;4.32;;;6.60;99.90;;;;;;5031425;28;20022;-77
2022/10/20 00:11:41;;;;;;;10.10;5.18;;;6.60;99.90;;;;;;5031018;28;20138;-77
2022/10/20 00:14:06;;;;;;;13.30;5.35;;;6.50;99.90;;;;;;5022156;28;20073;-77
2022/10/20 00:16:35;;;;;;;10.80;5.10;;;6.50;99.90;;;;;;5013438;28;20022;-77
2022/10/20 00:19:01;;;;;;;10.90;5.50;;;6.50;99.90;;;;;;5023358;28;20030;-77
2022/10/20 00:21:28;;;;;;;8.88;5.07;;;6.40;99.90;;;;;;5014897;28;20030;-77
2022/10/20 00:23:54;;;;;;;10.45;4.68;;;6.40;99.90;;;;;;5012987;28;20029;-77
2022/10/20 00:26:22;;;;;;;9.40;4.70;;;6.40;99.90;;;;;;5012842;28;20101;-77
2022/10/20 00:28:48;;;;;;;9.73;5.07;;;6.30;99.90;;;;;;5012658;28;20545;-77
2022/10/20 00:31:15;;;;;;;11.57;5.45;;;6.20;99.90;;;;;;5013570;28;20101;-77
2022/10/20 00:33:40;;;;;;;7.70;4.63;;;6.20;99.90;;;;;;5019436;28;20116;-77
2022/10/20 00:36:08;;;;;;;8.80;5.78;;;6.20;99.90;;;;;;5023454;28;20127;-77
2022/10/20 00:38:34;;;;;;;9.52;4.95;;;6.20;99.90;;;;;;5027482;28;20033;-77
2022/10/20 00:41:03;;;;;;;7.68;4.75;;;6.10;99.90;;;;;;5032270;28;20024;-77
2022/10/20 00:43:44;;;;;;;6.68;4.45;;;6.10;99.90;;;;;;5031034;28;20097;-77
2022/10/20 00:46:14;;;;;;;;;;;5.90;99.90;;;;;;5031968;28;20022;-77
2022/10/20 00:48:42;;;;;;;6.50;4.05;;;6.10;99.90;;;;;;5033443;28;19952;-77
2022/10/20 00:51:07;;;;;;;9.82;4.60;;;6.00;99.90;;;;;;5030915;28;20117;-77
2022/10/20 00:53:34;;;;;;;7.90;4.65;;;5.90;99.90;;;;;;5032256;28;20104;-77
2022/10/20 00:56:00;;;;;;;8.48;4.60;;;6.00;99.90;;;;;;5027075;28;20483;-77
2022/10/20 00:58:26;;;;;;;7.93;4.35;;;5.90;99.90;;;;;;5019394;28;20025;-77
2022/10/20 01:00:56;;;;;;;9.32;6.53;;;5.80;99.90;;;;;;5038214;28;20026;-77
2022/10/20 01:03:35;;;;;;;10.40;5.28;;;5.80;99.90;;;;;;5037818;28;20032;-77
2022/10/20 01:06:00;;;;;;;8.73;4.55;;;5.90;99.90;;;;;;5037949;28;20435;-77
2022/10/20 01:08:26;;;;;;;10.20;5.30;;;6.00;99.90;;;;;;5033525;28;20483;-77
2022/10/20 01:11:44;;;;;;;8.63;4.57;;;5.90;99.90;;;;;;5027099;28;20029;-77
2022/10/20 01:14:33;;;;;;;9.75;4.88;;;6.00;99.90;;;;;;5023451;28;20053;-77
2022/10/20 01:17:28;;;;;;;11.25;4.97;;;6.10;99.90;;;;;;5013927;28;20021;-77
2022/10/20 01:19:57;;;;;;;10.77;4.57;;;6.00;99.90;;;;;;5033517;28;20056;-77
2022/10/20 01:22:40;;;;;;;9.32;4.50;;;5.80;99.90;;;;;;5019113;28;20556;-77
2022/10/20 01:25:32;;;;;;;12.13;4.65;;;5.90;99.90;;;;;;5019216;28;20018;-77
2022/10/20 01:28:05;;;;;;;9.90;4.47;;;6.00;99.90;;;;;;4978146;28;20042;-77
2022/10/20 01:30:35;;;;;;;9.63;4.63;;;5.90;99.90;;;;;;5018999;28;20044;-77
2022/10/20 01:33:20;;;;;;;10.65;4.90;;;5.90;99.90;;;;;;5031518;28;20026;-77
2022/10/20 01:36:31;;;;;;;11.55;5.00;;;5.80;99.90;;;;;;5032748;28;20033;-77
2022/10/20 01:39:08;;;;;;;7.57;4.25;;;5.90;99.90;;;;;;5028258;28;20057;-77
2022/10/20 01:41:38;;;;;;;11.38;5.47;;;5.80;99.90;;;;;;5038104;28;20033;-77
2022/10/20 01:44:08;;;;;;;8.55;5.82;;;5.90;99.90;;;;;;5018975;28;20025;-77
2022/10/20 01:46:35;;;;;;;6.95;4.80;;;6.00;99.90;;;;;;5015959;28;20046;-77
2022/10/20 01:49:02;;;;;;;7.38;4.45;;;5.90;99.90;;;;;;5032500;28;20044;-77
2022/10/20 01:51:28;;;;;;;6.50;4.20;;;6.00;99.90;;;;;;5023739;28;20037;-76
2022/10/20 01:53:54;;;;;;;10.52;6.22;;;6.00;99.90;;;;;;5015613;28;20018;-77
2022/10/20 01:56:43;;;;;;;8.20;4.45;;;5.80;99.90;;;;;;4997791;28;20057;-76
2022/10/20 01:59:28;;;;;;;6.75;4.30;;;5.70;99.90;;;;;;5003902;28;20481;-76
2022/10/20 02:02:22;;;;;;;9.95;4.82;;;5.70;99.90;;;;;;5018661;28;20032;-77
2022/10/20 02:05:08;;;;;;;9.70;5.00;;;5.70;99.90;;;;;;5002544;28;20045;-77
2022/10/20 02:07:34;;;;;;;10.18;4.40;;;5.80;99.90;;;;;;5015678;28;20026;-77
2022/10/20 02:10:04;;;;;;;11.80;4.93;;;5.60;99.90;;;;;;5016790;28;20385;-76
2022/10/20 02:12:34;;;;;;;11.25;5.15;;;5.80;99.90;;;;;;5015191;28;20105;-77
2022/10/20 02:15:01;;;;;;;8.45;4.70;;;5.60;99.90;;;;;;5018990;28;20112;-76
2022/10/20 02:17:28;;;;;;;6.95;4.50;;;5.80;99.90;;;;;;5023452;28;20469;-76
2022/10/20 02:19:55;;;;;;;7.05;4.68;;;5.70;99.90;;;;;;5019294;28;20389;-76
2022/10/20 02:22:22;;;;;;;10.80;4.32;;;5.60;99.90;;;;;;5015417;28;20121;-76
2022/10/20 02:24:48;;;;;;;16.15;5.47;;;5.70;99.90;;;;;;4998213;28;20412;-76
2022/10/20 02:27:27;;;;;;;13.18;5.07;;;5.60;99.90;;;;;;5014276;28;20032;-77
2022/10/20 02:29:59;;;;;;;7.28;4.30;;;5.60;99.90;;;;;;5027705;28;20061;-77
2022/10/20 02:32:26;;;;;;;6.85;4.63;;;5.60;99.90;;;;;;5012327;28;20053;-77
2022/10/20 02:34:51;;;;;;;10.38;5.03;;;5.70;99.90;;;;;;4998018;28;20079;-77
2022/10/20 02:37:17;;;;;;;8.65;4.47;;;5.80;99.90;;;;;;5015994;28;20045;-76
2022/10/20 02:39:42;;;;;;;9.73;5.40;;;5.70;99.90;;;;;;5031728;28;20028;-77
2022/10/20 02:42:08;;;;;;;8.82;4.35;;;5.80;99.90;;;;;;5020808;28;20462;-76
2022/10/20 02:44:33;;;;;;;11.32;5.97;;;5.80;99.90;;;;;;5001981;28;20535;-77
2022/10/20 02:46:59;;;;;;;11.95;5.30;;;5.90;99.90;;;;;;5027547;28;20053;-76
2022/10/20 02:49:26;;;;;;;10.73;4.93;;;5.90;99.90;;;;;;5008334;28;20526;-76
2022/10/20 02:51:52;;;;;;;11.85;5.00;;;6.00;99.90;;;;;;5020515;28;20014;-77
2022/10/20 02:54:17;;;;;;;9.60;4.97;;;5.80;99.90;;;;;;5033617;28;20470;-77
2022/10/20 02:56:43;;;;;;;9.32;5.13;;;5.90;99.90;;;;;;5025335;28;20021;-76
2022/10/20 02:59:13;;;;;;;8.38;4.55;;;5.80;99.90;;;;;;5033716;28;20033;-76
2022/10/20 03:01:40;;;;;;;10.32;4.68;;;5.70;99.90;;;;;;5007867;28;20802;-76
2022/10/20 03:04:05;;;;;;;8.45;4.75;;;5.70;99.90;;;;;;5020592;28;20034;-77
2022/10/20 03:06:31;;;;;;;9.50;4.93;;;5.60;99.90;;;;;;5014146;28;20014;-77
2022/10/20 03:08:56;;;;;;;10.93;6.18;;;5.80;99.90;;;;;;5026986;28;20388;-77
2022/10/20 03:11:22;;;;;;;9.27;5.13;;;5.80;99.90;;;;;;5033141;28;20053;-76
2022/10/20 03:13:48;;;;;;;12.38;4.55;;;5.80;99.90;;;;;;5033331;28;20477;-77
2022/10/20 03:16:13;;;;;;;8.80;4.45;;;5.60;99.90;;;;;;5020217;28;20028;-77
2022/10/20 03:18:39;;;;;;;7.30;4.95;;;5.70;99.90;;;;;;5033317;28;20112;-77
2022/10/20 03:21:04;;;;;;;9.38;4.57;;;5.80;99.90;;;;;;5027152;28;20073;-76
2022/10/20 03:23:30;;;;;;;7.40;3.55;;;5.80;99.90;;;;;;5013996;28;20057;-77
2022/10/20 03:26:03;;;;;;;8.52;4.28;;;5.80;99.90;;;;;;5032544;28;20024;-77
2022/10/20 03:28:29;;;;;;;8.40;4.45;;;5.90;99.90;;;;;;5020062;28;20034;-77
2022/10/20 03:30:55;;;;;;;10.00;5.90;;;5.90;99.90;;;;;;5031315;28;20091;-76
2022/10/20 03:33:20;;;;;;;7.03;4.78;;;6.00;99.90;;;;;;5032712;28;20029;-77
2022/10/20 03:35:46;;;;;;;8.25;4.72;;;6.00;99.90;;;;;;5014038;28;20044;-77
2022/10/20 03:38:11;;;;;;;7.07;4.07;;;5.90;99.90;;;;;;5013859;28;20068;-77
2022/10/20 03:40:37;;;;;;;7.57;4.40;;;5.90;99.90;;;;;;5009039;28;20030;-77
2022/10/20 03:43:03;;;;;;;9.68;4.65;;;6.00;99.90;;;;;;5013942;28;20022;-76
2022/10/20 03:45:29;;;;;;;8.00;4.22;;;5.90;99.90;;;;;;5014466;28;20549;-77
2022/10/20 03:47:54;;;;;;;7.97;4.32;;;6.00;99.90;;;;;;5025948;28;20034;-77
2022/10/20 03:50:20;;;;;;;9.88;4.50;;;5.90;99.90;;;;;;5013911;28;20024;-77
2022/10/20 03:52:49;;;;;;;6.78;4.15;;;5.90;99.90;;;;;;5026199;28;20021;-77
2022/10/20 03:55:16;;;;;;;9.85;3.83;;;5.90;99.90;;;;;;5013849;28;20473;-77
2022/10/20 03:57:41;;;;;;;7.53;4.68;;;6.10;99.90;;;;;;5013452;28;20121;-77
2022/10/20 04:00:07;;;;;;;10.40;4.50;;;6.00;99.90;;;;;;5031955;28;20108;-77
2022/10/20 04:02:40;;;;;;;7.60;4.25;;;5.90;99.90;;;;;;5019890;28;20050;-77
2022/10/20 04:05:06;;;;;;;7.82;3.88;;;5.80;99.90;;;;;;5001294;28;20470;-77
2022/10/20 04:07:32;;;;;;;10.80;5.50;;;5.90;99.90;;;;;;5026059;28;20025;-76
2022/10/20 04:10:01;;;;;;;7.55;4.45;;;5.90;99.90;;;;;;5032629;28;20036;-76
2022/10/20 04:12:27;;;;;;;7.63;4.75;;;5.90;99.90;;;;;;5018345;28;20022;-77
2022/10/20 04:14:52;;;;;;;9.98;4.85;;;5.80;99.90;;;;;;5024851;28;20026;-77
2022/10/20 04:17:18;;;;;;;8.40;4.97;;;6.00;99.90;;;;;;5014446;28;20068;-76
2022/10/20 04:19:44;;;;;;;6.28;4.18;;;5.90;99.90;;;;;;5020827;28;20029;-77
2022/10/20 04:22:09;;;;;;;7.05;4.68;;;5.80;99.90;;;;;;5031660;28;20035;-76
2022/10/20 04:24:35;;;;;;;9.32;4.90;;;5.90;99.90;;;;;;5024963;28;20037;-76
2022/10/20 04:27:01;;;;;;;9.13;4.90;;;5.90;99.90;;;;;;5014044;28;20022;-76
2022/10/20 04:29:26;;;;;;;8.70;4.70;;;5.80;99.90;;;;;;5032082;28;20533;-77
2022/10/20 04:31:52;;;;;;;7.90;4.82;;;5.80;99.90;;;;;;5029919;28;20084;-77
2022/10/20 04:34:18;;;;;;;9.13;4.22;;;5.80;99.90;;;;;;5012610;28;20029;-77
2022/10/20 04:36:43;;;;;;;7.28;4.60;;;5.80;99.90;;;;;;5025395;28;20064;-77
2022/10/20 04:39:09;;;;;;;6.78;4.53;;;5.80;99.90;;;;;;5012472;28;20108;-77
2022/10/20 04:41:34;;;;;;;8.40;5.18;;;5.80;99.90;;;;;;5012616;28;20089;-77
2022/10/20 04:44:00;;;;;;;9.40;5.00;;;5.80;99.90;;;;;;5013126;28;20101;-77
2022/10/20 04:46:25;;;;;;;12.00;6.30;;;5.90;99.90;;;;;;5013224;28;20026;-77
2022/10/20 04:48:52;;;;;;;8.23;5.43;;;6.00;99.90;;;;;;5020443;28;20025;-77
2022/10/20 04:51:18;;;;;;;8.77;5.40;;;6.00;99.90;;;;;;5019077;28;20018;-76
2022/10/20 04:53:44;;;;;;;7.60;4.60;;;5.90;99.90;;;;;;5031487;28;20421;-77
2022/10/20 04:56:17;;;;;;;7.85;5.00;;;5.90;99.90;;;;;;5031188;28;20033;-76
2022/10/20 04:58:46;;;;;;;8.45;4.85;;;5.80;99.90;;;;;;5012394;28;20029;-77
2022/10/20 05:01:12;;;;;;;8.20;5.00;;;5.70;99.90;;;;;;5025338;28;20038;-77
2022/10/20 05:03:37;;;;;;;9.60;4.72;;;5.80;99.90;;;;;;5013333;28;20022;-77
2022/10/20 05:06:27;;;;;;;9.32;5.93;;;5.80;99.90;;;;;;5001366;28;20147;-76
2022/10/20 05:08:58;;;;;;;10.73;5.50;;;5.80;99.90;;;;;;5012892;28;20131;-77
2022/10/20 05:11:26;;;;;;;8.57;5.07;;;5.80;99.90;;;;;;5031160;28;20128;-77
2022/10/20 05:13:51;;;;;;;14.15;5.85;;;5.80;99.90;;;;;;5030135;28;20036;-76
2022/10/20 05:16:17;;;;;;;8.68;5.57;;;5.80;99.90;;;;;;5030452;28;20017;-77
2022/10/20 05:18:43;;;;;;;8.25;4.93;;;5.90;99.90;;;;;;5030867;28;20414;-77
2022/10/20 05:21:18;;;;;;;8.15;5.20;;;5.80;99.90;;;;;;5034263;28;20033;-76
2022/10/20 05:23:44;;;;;;;11.38;6.30;;;5.80;99.90;;;;;;5032888;28;20477;-76
2022/10/20 05:26:14;;;;;;;11.55;6.18;;;5.80;99.90;;;;;;5024334;28;20428;-76
2022/10/20 05:28:43;;;;;;;16.00;7.78;;;5.90;99.90;;;;;;5034099;28;20033;-76
2022/10/20 05:31:09;;;;;;;10.27;5.60;;;6.00;99.90;;;;;;5033564;28;20424;-77
2022/10/20 05:33:35;;;;;;;7.90;5.35;;;6.00;99.90;;;;;;5020239;28;20489;-77
2022/10/20 05:36:12;;;;;;;11.10;6.90;;;6.00;99.90;;;;;;5015572;28;20042;-77
2022/10/20 05:38:39;;;;;;;11.00;5.90;;;6.00;99.90;;;;;;5019260;28;20034;-77
2022/10/20 05:41:07;;;;;;;11.75;6.85;;;6.00;99.90;;;;;;5017320;28;20052;-76
2022/10/20 05:43:33;;;;;;;10.68;6.38;;;6.00;99.90;;;;;;5022156;28;20365;-77
2022/10/20 05:45:58;;;;;;;13.85;8.00;;;6.10;99.90;;;;;;5024171;28;20041;-76
2022/10/20 05:48:24;;;;;;;10.80;6.57;;;6.10;99.90;;;;;;5016071;28;20373;-77
2022/10/20 05:50:49;;;;;;;11.35;6.35;;;6.10;99.90;;;;;;5015884;28;20029;-76
2022/10/20 05:53:15;;;;;;;13.25;6.93;;;6.10;99.90;;;;;;5019617;28;20021;-77
2022/10/20 05:55:40;;;;;;;13.00;7.85;;;6.10;99.90;;;;;;5034857;28;20064;-77
2022/10/20 05:58:06;;;;;;;12.38;7.35;;;6.20;99.90;;;;;;5034442;28;20506;-77
2022/10/20 06:00:40;;;;;;;11.02;6.55;;;6.10;99.90;;;;;;5034531;28;20425;-77
2022/10/20 06:03:06;;;;;;;11.98;6.43;;;6.10;99.90;;;;;;5029911;28;20022;-77
2022/10/20 06:05:31;;;;;;;12.52;7.20;;;6.00;99.90;;;;;;5015133;28;20079;-77
2022/10/20 06:07:57;;;;;;;12.85;6.90;;;6.00;99.90;;;;;;5028018;28;20026;-77
2022/10/20 06:10:23;;;;;;;13.88;8.32;;;6.00;99.90;;;;;;5015178;28;20029;-77
2022/10/20 06:12:49;;;;;;;10.15;6.20;;;6.00;99.90;;;;;;5014849;28;20145;-77
2022/10/20 06:15:14;;;;;;;11.85;7.10;;;6.00;99.90;;;;;;5026033;28;20104;-77
2022/10/20 06:17:40;;;;;;;11.57;6.35;;;6.10;99.90;;;;;;5016224;28;20037;-77
2022/10/20 06:20:06;;;;;;;12.07;7.03;;;6.10;99.90;;;;;;5024567;28;20041;-77
2022/10/20 06:22:31;;;;;;;13.27;7.60;;;6.20;99.90;;;;;;5016640;28;20408;-77
2022/10/20 06:24:57;;;;;;;14.68;7.63;;;6.10;99.90;;;;;;5015060;28;20021;-77
2022/10/20 06:27:22;;;;;;;13.18;7.50;;;6.10;99.90;;;;;;5032522;28;20480;-77
2022/10/20 06:29:48;;;;;;;13.00;8.43;;;6.10;99.90;;;;;;5033412;28;20438;-77
2022/10/20 06:32:17;;;;;;;11.85;7.47;;;6.20;99.90;;;;;;5032483;28;20021;-77
2022/10/20 06:34:43;;;;;;;14.02;7.90;;;6.20;99.90;;;;;;5023486;28;20194;-77
2022/10/20 06:37:09;;;;;;;14.05;7.57;;;6.20;99.90;;;;;;5014525;28;20493;-77
2022/10/20 06:39:35;;;;;;;16.95;10.10;;;6.20;99.90;;;;;;5014974;28;20065;-77
2022/10/20 06:42:02;;;;;;;15.88;9.45;;;6.30;99.90;;;;;;5027428;28;20421;-77
2022/10/20 06:44:28;;;;;;;13.13;7.82;;;6.40;99.90;;;;;;5025459;28;20067;-77
2022/10/20 06:46:54;;;;;;;12.52;7.57;;;6.40;99.90;;;;;;5033667;28;20033;-77
2022/10/20 06:49:19;;;;;;;14.57;8.38;;;6.40;99.90;;;;;;5034006;28;20075;-77
2022/10/20 06:51:45;;;;;;;12.88;8.25;;;6.40;99.90;;;;;;5016180;28;20033;-77
2022/10/20 06:54:11;;;;;;;15.68;8.43;;;6.50;99.90;;;;;;5025338;28;20129;-77
2022/10/20 06:56:38;;;;;;;13.32;8.55;;;6.50;99.90;;;;;;5028659;28;20366;-77
2022/10/20 06:59:04;;;;;;;13.00;8.23;;;6.60;99.90;;;;;;5025561;28;20056;-77
2022/10/20 07:01:39;;;;;;;18.40;10.05;;;6.60;99.90;;;;;;5031344;28;20380;-77
2022/10/20 07:04:10;;;;;;;15.18;7.97;;;6.70;99.90;;;;;;5033221;28;20028;-77
2022/10/20 07:06:40;;;;;;;16.42;9.10;;;6.70;99.90;;;;;;5027003;28;20022;-77
2022/10/20 07:09:10;;;;;;;;;;;6.80;99.90;;;;;;5015794;28;20076;-77
2022/10/20 07:11:35;;;;;;;14.10;7.67;;;6.80;99.90;;;;;;5026284;28;19912;-77
2022/10/20 07:14:02;;;;;;;14.13;8.38;;;6.90;99.90;;;;;;5027667;28;20025;-77
2022/10/20 07:16:30;;;;;;;13.85;8.82;;;7.10;99.90;;;;;;5014606;28;20022;-77
2022/10/20 07:18:56;;;;;;;14.10;9.10;;;7.10;99.90;;;;;;5015675;28;20497;-77
2022/10/20 07:21:25;;;;;;;11.93;7.55;;;7.20;99.90;;;;;;5021156;28;20017;-77
2022/10/20 07:23:52;;;;;;;16.58;8.50;;;7.30;99.90;;;;;;5021409;28;20485;-77
2022/10/20 07:26:26;;;;;;;16.50;9.70;;;7.50;99.90;;;;;;5033041;28;20017;-77
2022/10/20 07:28:55;;;;;;;16.75;9.68;;;8.00;99.90;;;;;;5030401;28;20030;-77
2022/10/20 07:31:34;;;;;;;12.60;8.77;;;8.20;99.90;;;;;;5023059;28;20033;-77
2022/10/20 07:34:00;;;;;;;13.77;8.25;;;8.50;99.90;;;;;;5018724;28;20025;-77
2022/10/20 07:36:28;;;;;;;15.13;9.15;;;8.70;99.90;;;;;;5021045;28;20390;-77
2022/10/20 07:38:56;;;;;;;17.58;9.10;;;9.10;97.40;;;;;;5013310;28;20029;-77
2022/10/20 07:41:22;;;;;;;13.80;8.32;;;9.10;94.80;;;;;;4995206;28;20030;-77
2022/10/20 07:43:48;;;;;;;12.82;8.43;;;8.70;99.60;;;;;;5013537;28;20030;-77
2022/10/20 07:46:14;;;;;;;11.32;8.20;;;8.50;99.90;;;;;;5013605;28;20029;-77
2022/10/20 07:48:40;;;;;;;13.23;8.73;;;8.40;99.90;;;;;;5013998;28;20433;-77
2022/10/20 07:51:23;;;;;;;13.98;8.10;;;8.50;99.90;;;;;;5013249;28;20072;-77
2022/10/20 07:53:51;;;;;;;13.70;8.50;;;8.80;99.90;;;;;;5010529;28;20032;-77
2022/10/20 07:56:16;;;;;;;12.63;9.02;;;8.60;99.90;;;;;;5032336;28;20108;-77
2022/10/20 07:58:42;;;;;;;15.75;8.88;;;8.40;99.90;;;;;;5014882;28;20204;-78
2022/10/20 08:01:09;;;;;;;12.10;8.95;;;8.40;99.90;;;;;;5030424;28;20048;-77
2022/10/20 08:03:35;;;;;;;13.57;8.85;;;8.40;99.90;;;;;;5021684;28;20057;-77
2022/10/20 08:06:01;;;;;;;12.27;9.32;;;8.40;99.90;;;;;;5017228;28;20032;-77
2022/10/20 08:08:27;;;;;;;13.70;9.63;;;8.20;99.90;;;;;;5022321;28;20385;-77
2022/10/20 08:10:53;;;;;;;13.10;7.97;;;8.30;99.90;;;;;;5030801;28;20543;-77
2022/10/20 08:13:18;;;;;;;13.45;9.00;;;8.40;99.90;;;;;;5032398;28;20462;-77
2022/10/20 08:15:44;;;;;;;17.05;9.05;;;8.60;99.90;;;;;;5029240;28;20488;-77
2022/10/20 08:18:10;;;;;;;15.95;9.55;;;8.50;99.90;;;;;;5012677;28;20418;-77
2022/10/20 08:20:35;;;;;;;13.88;9.77;;;8.60;99.90;;;;;;5015493;28;20068;-77
2022/10/20 08:23:01;;;;;;;13.45;8.63;;;8.90;99.90;;;;;;5031919;28;20029;-77
2022/10/20 08:25:26;;;;;;;14.63;8.75;;;9.10;99.90;;;;;;5031375;28;20101;-77
2022/10/20 08:27:52;;;;;;;13.40;8.65;;;9.30;99.80;;;;;;5023636;28;20072;-77
2022/10/20 08:30:18;;;;;;;11.68;9.02;;;9.80;86.90;;;;;;5014220;28;20097;-77
2022/10/20 08:32:43;;;;;;;13.43;8.65;;;10.10;83.00;;;;;;5032108;28;20029;-77
2022/10/20 08:35:09;;;;;;;13.68;9.20;;;10.70;67.40;;;;;;5030695;28;20369;-78
2022/10/20 08:37:35;;;;;;;13.60;9.18;;;12.50;28.40;;;;;;4991546;28;20133;-78
2022/10/20 08:40:02;;;;;;;15.52;9.48;;;13.70;12.40;;;;;;4994824;28;20034;-78
2022/10/20 08:42:28;;;;;;;15.65;9.02;;;13.50;6.50;;;;;;5012287;28;20026;-77
2022/10/20 08:44:58;;;;;;;11.68;8.10;;;13.50;1.00;;;;;;5011871;28;20041;-77
2022/10/20 08:47:34;;;;;;;10.65;7.43;;;14.00;1.00;;;;;;5012173;28;20022;-78
2022/10/20 08:50:03;;;;;;;12.63;9.80;;;14.90;1.00;;;;;;5008649;28;20038;-77
2022/10/20 08:52:29;;;;;;;11.65;8.57;;;13.70;1.00;;;;;;5003739;28;20021;-78
2022/10/20 08:54:56;;;;;;;12.35;8.45;;;12.60;1.00;;;;;;5016239;28;20044;-78
2022/10/20 08:57:26;;;;;;;12.32;9.05;;;11.60;11.80;;;;;;5005665;28;20069;-77
2022/10/20 08:59:53;;;;;;;10.85;8.77;;;11.20;17.70;;;;;;5014191;28;20080;-78
2022/10/20 09:02:21;;;;;;;11.60;7.93;;;11.90;18.70;;;;;;5016115;28;20041;-78
2022/10/20 09:04:54;;;;;;;11.35;7.53;;;11.70;19.40;;;;;;5015702;28;20061;-77
2022/10/20 09:07:48;;;;;;;13.88;9.18;;;11.30;15.60;;;;;;5015687;28;20466;-77
2022/10/20 09:10:29;;;;;;;12.95;9.02;;;11.30;19.90;;;;;;5014423;28;20036;-78
2022/10/20 09:12:56;;;;;;;9.60;7.65;;;11.10;22.40;;;;;;5010738;28;20033;-77
2022/10/20 09:15:22;;;;;;;13.82;8.07;;;10.90;26.20;;;;;;5008647;28;20477;-77
2022/10/20 09:17:59;;;;;;;9.63;7.95;;;11.30;24.00;;;;;;4998063;28;20026;-77
2022/10/20 09:20:49;;;;;;;10.93;8.70;;;11.70;23.40;;;;;;5009661;28;20026;-77
2022/10/20 09:23:18;;;;;;;13.73;9.10;;;12.20;19.80;;;;;;5015918;28;20026;-77
2022/10/20 09:25:46;;;;;;;13.43;9.02;;;12.40;17.40;;;;;;5014864;28;20033;-77
2022/10/20 09:28:25;;;;;;;11.48;8.68;;;12.30;16.30;;;;;;5005464;28;20045;-77
2022/10/20 09:30:52;;;;;;;11.60;8.77;;;12.00;20.00;;;;;;5012860;28;20018;-78
2022/10/20 09:33:29;;;;;;;11.32;8.30;;;12.00;20.30;;;;;;5002696;28;20030;-78
2022/10/20 09:36:12;;;;;;;10.38;7.40;;;12.30;13.90;;;;;;4993363;28;20493;-78
2022/10/20 09:38:42;;;;;;;12.40;8.80;;;13.40;12.10;;;;;;5021693;28;20029;-78
2022/10/20 09:41:13;;;;;;;11.85;8.45;;;14.50;1.20;;;;;;5025267;28;20084;-78
2022/10/20 09:43:52;;;;;;;13.32;9.32;;;15.40;1.00;;;;;;5032776;28;20448;-78
2022/10/20 09:46:23;;;;;;;11.53;8.60;;;14.20;1.00;;;;;;5035116;28;20389;-78
2022/10/20 09:48:50;;;;;;;11.75;8.60;;;13.00;3.20;;;;;;5028976;28;20025;-77
2022/10/20 09:51:34;;;;;;;13.05;7.85;;;13.20;3.70;;;;;;5028654;28;20108;-78
2022/10/20 09:54:05;;;;;;;12.85;9.20;;;13.00;6.30;;;;;;5005376;28;20034;-78
2022/10/20 09:56:36;;;;;;;11.57;8.43;;;12.70;7.50;;;;;;5016592;28;20049;-77
2022/10/20 09:59:06;;;;;;;14.75;8.80;;;12.90;9.00;;;;;;5025018;28;20025;-78
2022/10/20 10:01:32;;;;;;;13.00;7.93;;;13.00;8.20;;;;;;5029918;28;20034;-78
2022/10/20 10:04:01;;;;;;;11.07;8.25;;;12.90;8.60;;;;;;5025974;28;20038;-77
2022/10/20 10:06:41;;;;;;;13.85;8.48;;;13.20;7.20;;;;;;5029584;28;20021;-78
2022/10/20 10:09:30;;;;;;;10.63;7.40;;;13.30;6.90;;;;;;5015711;28;20026;-78
2022/10/20 10:11:59;;;;;;;12.38;8.27;;;13.50;4.30;;;;;;5024972;28;20026;-78
2022/10/20 10:14:26;;;;;;;12.20;8.30;;;13.70;4.10;;;;;;5031225;28;20019;-78
2022/10/20 10:16:52;;;;;;;16.05;8.80;;;14.20;3.50;;;;;;5024673;28;20032;-78
2022/10/20 10:19:23;;;;;;;11.60;8.32;;;14.20;1.50;;;;;;5028464;28;20104;-78
2022/10/20 10:21:53;;;;;;;11.18;8.70;;;13.80;1.00;;;;;;5015616;28;20034;-77
2022/10/20 10:24:42;;;;;;;10.95;7.78;;;14.20;2.30;;;;;;5032627;28;20017;-78
2022/10/20 10:27:25;;;;;;;14.07;8.63;;;14.40;1.00;;;;;;5019703;28;20033;-78
2022/10/20 10:29:51;;;;;;;12.27;8.70;;;14.60;1.00;;;;;;5025312;28;20029;-78
2022/10/20 10:32:25;;;;;;;11.80;9.30;;;14.20;1.00;;;;;;5032847;28;20014;-78
2022/10/20 10:35:23;;;;;;;12.20;8.30;;;14.30;1.00;;;;;;5022282;28;20054;-78
2022/10/20 10:37:49;;;;;;;12.23;8.93;;;14.30;1.20;;;;;;5014979;28;20052;-78
2022/10/20 10:40:20;;;;;;;9.65;8.48;;;14.20;1.00;;;;;;5032850;28;20382;-78
2022/10/20 10:42:55;;;;;;;10.75;8.45;;;14.50;1.00;;;;;;5033389;28;20484;-78
2022/10/20 10:45:40;;;;;;;11.52;8.23;;;14.80;1.00;;;;;;5021525;28;20469;-78
2022/10/20 10:48:24;;;;;;;13.35;8.98;;;15.00;1.00;;;;;;5032818;28;20388;-78
2022/10/20 10:50:58;;;;;;;11.45;7.95;;;14.90;1.00;;;;;;5023404;28;20022;-78
2022/10/20 10:54:09;;;;;;;12.63;8.50;;;14.40;1.00;;;;;;5032331;28;20060;-78
2022/10/20 10:56:44;;;;;;;13.30;8.65;;;14.20;1.00;;;;;;4991398;28;20028;-78
2022/10/20 10:59:11;;;;;;;12.13;7.82;;;14.00;1.00;;;;;;4991796;28;20117;-78
2022/10/20 11:01:59;;;;;;;10.63;8.15;;;14.00;1.50;;;;;;4993086;28;20038;-78
2022/10/20 11:04:42;;;;;;;10.43;8.13;;;13.90;1.00;;;;;;5026960;28;20504;-78
2022/10/20 11:07:24;;;;;;;12.10;8.40;;;14.20;3.80;;;;;;5014742;28;20030;-77
2022/10/20 11:10:20;;;;;;;11.50;8.10;;;14.00;2.90;;;;;;5014635;28;20466;-78
2022/10/20 11:12:58;;;;;;;12.07;8.02;;;13.80;2.50;;;;;;5001027;28;20042;-77
2022/10/20 11:15:47;;;;;;;12.70;8.68;;;13.80;6.10;;;;;;4995075;28;20050;-77
2022/10/20 11:18:28;;;;;;;10.83;7.43;;;14.00;7.20;;;;;;4996390;28;20031;-78
2022/10/20 11:21:06;;;;;;;13.20;9.00;;;14.20;2.40;;;;;;5014124;28;20048;-78
2022/10/20 11:23:56;;;;;;;14.30;8.93;;;13.90;7.90;;;;;;5002141;28;20105;-77
2022/10/20 11:26:27;;;;;;;12.13;9.10;;;14.10;7.90;;;;;;4994947;28;20033;-78
2022/10/20 11:28:55;;;;;;;12.68;9.05;;;13.90;7.00;;;;;;4994787;28;20062;-78
2022/10/20 11:31:35;;;;;;;10.52;8.35;;;13.90;8.80;;;;;;4994762;28;20375;-78
2022/10/20 11:34:15;;;;;;;13.18;9.65;;;13.70;6.30;;;;;;5005432;28;20053;-77
2022/10/20 11:36:48;;;;;;;11.27;8.50;;;13.70;11.30;;;;;;4996347;28;20060;-78
2022/10/20 11:39:33;;;;;;;13.60;9.27;;;13.50;9.40;;;;;;5013926;28;20037;-77
2022/10/20 11:42:31;;;;;;;12.80;9.27;;;13.50;13.80;;;;;;5015406;28;20029;-78
2022/10/20 11:45:00;;;;;;;13.65;9.05;;;13.50;13.20;;;;;;4998598;28;20034;-78
2022/10/20 11:47:33;;;;;;;12.43;8.38;;;13.50;12.90;;;;;;5003562;28;20665;-78
2022/10/20 11:49:59;;;;;;;13.15;9.13;;;13.40;14.00;;;;;;4998523;28;20398;-78
2022/10/20 11:52:42;;;;;;;15.18;8.77;;;13.20;12.90;;;;;;4994978;28;20462;-79
2022/10/20 11:55:31;;;;;;;14.10;9.40;;;13.30;15.20;;;;;;5005321;28;20029;-78
2022/10/20 11:58:21;;;;;;;15.00;9.80;;;13.20;19.10;;;;;;5013731;28;20065;-78
2022/10/20 12:01:21;;;;;;;13.90;9.73;;;13.10;20.30;;;;;;5009772;28;20723;-77
2022/10/20 12:04:15;;;;;;;12.50;8.48;;;13.20;21.20;;;;;;4989910;28;20038;-78
2022/10/20 12:06:53;;;;;;;13.90;9.82;;;13.10;24.20;;;;;;4996571;28;20091;-77
2022/10/20 12:09:24;;;;;;;14.35;9.88;;;12.90;26.60;;;;;;5013946;28;20090;-77
2022/10/20 12:12:06;;;;;;;12.68;9.57;;;12.90;29.50;;;;;;5013621;28;20402;-76
2022/10/20 12:14:50;;;;;;;12.50;8.88;;;13.00;34.90;;;;;;5012101;28;20021;-76
2022/10/20 12:17:26;;;;;;;13.10;9.02;;;13.00;42.30;;;;;;5008026;28;20436;-77
2022/10/20 12:20:11;;;;;;;16.17;9.30;;;12.80;48.00;;;;;;5017069;28;20041;-77
2022/10/20 12:22:40;;;;;;;14.68;8.80;;;12.60;59.20;;;;;;5013515;28;20022;-77
2022/10/20 12:25:06;;;;;;;16.63;10.18;;;12.60;71.50;;;;;;5013771;28;20378;-77
2022/10/20 12:27:31;;;;;;;14.82;9.40;;;12.40;86.80;;;;;;5001256;28;20037;-77
2022/10/20 12:30:21;;;;;;;14.68;9.60;;;12.40;96.00;;;;;;4993577;28;20022;-77
2022/10/20 12:32:53;;;;;;;15.15;9.80;;;12.30;95.40;;;;;;5001475;28;20120;-77
2022/10/20 12:35:19;;;;;;;13.93;10.10;;;12.20;99.20;;;;;;5005806;28;20026;-78
2022/10/20 12:37:56;;;;;;;15.48;9.20;;;12.20;99.90;;;;;;5000459;28;20050;-78
2022/10/20 12:40:27;;;;;;;16.50;10.18;;;12.10;99.90;;;;;;5002669;28;20073;-77
2022/10/20 12:42:54;;;;;;;15.68;10.57;;;12.10;99.90;;;;;;5007565;28;20030;-78
2022/10/20 12:45:38;;;;;;;17.50;11.23;;;11.90;99.90;;;;;;5013234;28;20022;-78
2022/10/20 12:48:06;;;;;;;15.60;10.00;;;11.60;99.90;;;;;;5013719;28;20420;-78
2022/10/20 12:50:40;;;;;;;16.63;9.38;;;11.70;99.90;;;;;;5013724;28;20469;-78
2022/10/20 12:53:30;;;;;;;18.63;11.27;;;11.60;99.90;;;;;;5012705;28;20226;-78
2022/10/20 12:56:05;;;;;;;16.08;10.20;;;11.60;1.00;;;;;;5013000;28;20045;-79
2022/10/20 12:58:33;;;;;;;16.23;10.23;;;11.60;99.90;;;;;;4999083;28;20030;-79
2022/10/20 13:01:06;;;;;;;19.00;10.77;;;11.50;99.90;;;;;;5025318;28;20092;-79
2022/10/20 13:03:41;;;;;;;17.38;9.93;;;11.60;99.90;;;;;;4995567;28;20462;-79
2022/10/20 13:06:22;;;;;;;15.77;9.98;;;11.60;1.00;;;;;;5013520;28;20048;-78
2022/10/20 13:09:03;;;;;;;15.68;10.35;;;11.60;1.00;;;;;;5004834;28;20030;-78